Time;durP1;ratioP1;P1;durP2;ratioP2;P2;SDS_P1;SDS_P2;PMS_P1;PMS_P2;Temp;Humidity;BMP_temperature;BMP_pressure;BME280_temperature;BME280_humidity;BME280_pressure;Samples;Min_cycle;Max_cycle;Signal;HPM_P1;HPM_P2
2022/05/24 00:00:48;;;;;;;4.70;1.55;;;21.70;54.70;;;;;;5107680;28;20027;-70
2022/05/24 00:03:14;;;;;;;1.70;1.20;;;21.70;54.40;;;;;;5103452;28;20026;-69
2022/05/24 00:05:40;;;;;;;3.55;1.30;;;21.80;54.40;;;;;;5117044;27;20392;-70
2022/05/24 00:08:07;;;;;;;6.00;1.23;;;21.70;54.50;;;;;;5093454;28;20048;-70
2022/05/24 00:10:34;;;;;;;3.67;1.45;;;21.70;54.60;;;;;;5079645;28;20019;-69
2022/05/24 00:13:03;;;;;;;3.13;1.50;;;21.70;54.70;;;;;;5107133;28;20031;-71
2022/05/24 00:15:33;;;;;;;3.38;1.60;;;21.70;54.70;;;;;;5092414;28;20030;-70
2022/05/24 00:18:05;;;;;;;1.98;1.20;;;21.70;54.50;;;;;;5093862;28;20032;-71
2022/05/24 00:20:35;;;;;;;2.88;1.48;;;21.70;54.40;;;;;;5109226;28;20023;-69
2022/05/24 00:23:03;;;;;;;3.28;1.52;;;21.70;54.30;;;;;;5099703;28;20023;-69
2022/05/24 00:25:32;;;;;;;1.48;1.15;;;21.70;54.40;;;;;;5106730;28;20065;-69
2022/05/24 00:27:58;;;;;;;2.15;1.35;;;21.70;54.40;;;;;;5108738;28;20093;-70
2022/05/24 00:30:24;;;;;;;3.33;1.63;;;21.60;54.20;;;;;;5097240;28;20031;-69
2022/05/24 00:32:50;;;;;;;3.95;1.60;;;21.70;54.40;;;;;;5109185;28;20023;-69
2022/05/24 00:35:18;;;;;;;3.05;1.63;;;21.70;54.60;;;;;;5104325;28;20103;-70
2022/05/24 00:37:46;;;;;;;1.88;1.48;;;21.70;54.90;;;;;;5105705;28;20031;-70
2022/05/24 00:40:35;;;;;;;2.97;1.70;;;21.70;55.00;;;;;;5095509;28;20054;-71
2022/05/24 00:43:11;;;;;;;2.67;1.35;;;21.60;54.90;;;;;;5097639;28;20048;-69
2022/05/24 00:45:45;;;;;;;3.40;1.40;;;21.60;55.00;;;;;;5105915;28;20023;-71
2022/05/24 00:48:32;;;;;;;6.88;1.90;;;21.60;55.00;;;;;;5096452;28;20028;-70
2022/05/24 00:51:00;;;;;;;2.38;1.30;;;21.70;54.80;;;;;;5102145;28;20024;-70
2022/05/24 00:53:40;;;;;;;4.03;1.75;;;21.70;54.70;;;;;;5102798;28;20024;-71
2022/05/24 00:56:18;;;;;;;2.45;1.08;;;21.60;55.00;;;;;;5099788;28;20107;-69
2022/05/24 00:59:07;;;;;;;2.65;1.25;;;21.60;54.90;;;;;;5081861;28;20031;-69
2022/05/24 01:01:41;;;;;;;3.13;1.35;;;21.60;55.50;;;;;;5092807;28;20042;-70
2022/05/24 01:04:12;;;;;;;2.25;1.40;;;21.60;55.30;;;;;;5108352;28;20023;-71
2022/05/24 01:06:38;;;;;;;3.47;1.50;;;21.60;55.20;;;;;;5082893;28;20027;-69
2022/05/24 01:09:07;;;;;;;4.78;1.80;;;21.60;55.50;;;;;;5120741;27;20506;-74
2022/05/24 01:11:39;;;;;;;2.45;1.30;;;21.60;55.30;;;;;;5103693;28;20023;-71
2022/05/24 01:14:07;;;;;;;2.85;1.67;;;21.50;55.20;;;;;;5095768;28;20116;-69
2022/05/24 01:16:34;;;;;;;4.20;1.80;;;21.50;55.10;;;;;;5093076;28;20020;-70
2022/05/24 01:19:04;;;;;;;2.88;1.80;;;21.50;55.30;;;;;;5100520;28;20023;-69
2022/05/24 01:21:31;;;;;;;6.68;2.08;;;21.40;55.40;;;;;;5100396;28;20021;-70
2022/05/24 01:24:33;;;;;;;4.25;1.85;;;21.40;55.60;;;;;;5098199;28;20020;-70
2022/05/24 01:27:02;;;;;;;3.42;1.85;;;21.40;55.90;;;;;;5078209;28;20092;-70
2022/05/24 01:29:28;;;;;;;3.90;2.15;;;21.40;56.20;;;;;;5100444;28;20067;-69
2022/05/24 01:37:27;;;;;;;5.13;1.77;;;21.30;55.80;;;;;;5102527;28;20434;-70
2022/05/24 01:39:56;;;;;;;6.10;1.90;;;21.30;55.70;;;;;;5106673;28;20027;-72
2022/05/24 01:42:24;;;;;;;2.70;1.63;;;21.30;56.10;;;;;;5111484;28;20376;-69
2022/05/24 01:45:09;;;;;;;2.85;1.73;;;21.30;56.60;;;;;;5105697;28;20024;-70
2022/05/24 01:47:36;;;;;;;5.93;1.85;;;21.20;57.00;;;;;;5103692;28;20031;-70
2022/05/24 01:50:08;;;;;;;3.40;2.10;;;21.20;57.00;;;;;;5095728;28;20035;-69
2022/05/24 01:52:50;;;;;;;6.30;2.20;;;21.10;57.40;;;;;;5078688;28;20072;-69
2022/05/24 01:55:23;;;;;;;10.15;2.30;;;21.10;57.70;;;;;;5091673;28;20029;-70
2022/05/24 01:57:54;;;;;;;3.70;1.60;;;21.10;58.00;;;;;;5091511;28;20482;-69
2022/05/24 02:00:20;;;;;;;5.70;2.05;;;21.10;57.90;;;;;;5091295;28;20035;-73
2022/05/24 02:02:47;;;;;;;4.68;1.88;;;21.10;58.20;;;;;;5092727;28;20024;-70
2022/05/24 02:05:26;;;;;;;3.58;1.98;;;21.00;58.30;;;;;;5091359;28;20028;-69
2022/05/24 02:07:52;;;;;;;10.93;2.70;;;21.00;57.90;;;;;;5092160;28;20074;-69
2022/05/24 02:10:18;;;;;;;3.10;1.88;;;21.00;58.10;;;;;;5092434;28;20103;-70
2022/05/24 02:12:47;;;;;;;3.45;2.00;;;21.00;58.30;;;;;;5093052;28;20020;-70
2022/05/24 02:15:19;;;;;;;3.72;1.63;;;21.00;58.30;;;;;;5092679;28;20054;-69
2022/05/24 02:18:04;;;;;;;6.20;3.15;;;21.00;58.00;;;;;;5094830;28;20032;-71
2022/05/24 02:20:33;;;;;;;2.95;1.90;;;21.00;57.90;;;;;;5096356;28;20032;-69
2022/05/24 02:22:59;;;;;;;12.57;2.13;;;21.00;57.80;;;;;;5094982;28;20024;-69
2022/05/24 02:25:44;;;;;;;3.22;1.58;;;21.00;57.90;;;;;;5096219;28;20034;-69
2022/05/24 02:28:12;;;;;;;2.33;1.40;;;21.00;57.70;;;;;;5094857;28;20040;-70
2022/05/24 02:30:42;;;;;;;2.08;1.77;;;21.00;57.60;;;;;;5096148;28;20024;-70
2022/05/24 02:33:08;;;;;;;2.80;1.60;;;21.00;58.00;;;;;;5095860;28;20564;-71
2022/05/24 02:35:34;;;;;;;3.65;2.08;;;20.90;57.90;;;;;;5095810;28;20020;-70
2022/05/24 02:37:59;;;;;;;6.38;2.08;;;20.90;58.40;;;;;;5095676;28;20024;-70
2022/05/24 02:43:09;;;;;;;2.75;1.70;;;20.90;58.20;;;;;;5095945;28;20502;-70
2022/05/24 02:45:35;;;;;;;3.55;2.10;;;20.90;58.10;;;;;;5094503;28;20055;-70
2022/05/24 02:48:01;;;;;;;3.83;1.98;;;20.90;58.40;;;;;;5094670;28;20028;-69
2022/05/24 02:50:27;;;;;;;3.78;2.08;;;20.80;58.60;;;;;;5095476;28;20446;-69
2022/05/24 02:52:53;;;;;;;4.28;2.38;;;20.80;59.20;;;;;;5077656;28;20032;-70
2022/05/24 02:55:19;;;;;;;3.50;2.10;;;20.70;59.40;;;;;;5075442;28;20056;-70
2022/05/24 02:57:45;;;;;;;3.63;2.00;;;20.70;59.60;;;;;;5075140;28;20035;-70
2022/05/24 03:00:18;;;;;;;3.17;1.58;;;20.70;59.70;;;;;;5075000;28;20024;-69
2022/05/24 03:02:44;;;;;;;4.10;2.03;;;20.60;59.60;;;;;;5073692;28;20035;-69
2022/05/24 03:05:12;;;;;;;7.63;1.95;;;20.60;59.90;;;;;;5073857;28;20056;-69
2022/05/24 03:10:23;;;;;;;5.05;1.90;;;20.50;60.00;;;;;;5075153;28;20046;-69
2022/05/24 03:15:36;;;;;;;5.60;2.25;;;20.40;60.20;;;;;;5075054;28;20094;-70
2022/05/24 03:18:01;;;;;;;3.30;1.67;;;20.40;60.30;;;;;;5073583;28;20036;-70
2022/05/24 03:20:27;;;;;;;6.60;2.50;;;20.40;60.50;;;;;;5074951;28;20024;-69
2022/05/24 03:22:53;;;;;;;3.63;1.60;;;20.40;60.60;;;;;;5074997;28;20040;-69
2022/05/24 03:25:19;;;;;;;2.83;1.65;;;20.30;60.70;;;;;;5074810;28;20035;-69
2022/05/24 03:27:48;;;;;;;9.80;1.73;;;20.30;60.70;;;;;;5073328;28;20065;-69
2022/05/24 03:30:15;;;;;;;5.80;2.00;;;20.30;60.90;;;;;;5074697;28;20025;-69
2022/05/24 03:32:41;;;;;;;5.10;2.00;;;20.30;61.10;;;;;;5074360;28;20021;-69
2022/05/24 03:35:08;;;;;;;5.60;2.05;;;20.30;61.10;;;;;;5073291;28;20032;-70
2022/05/24 03:37:35;;;;;;;3.30;1.95;;;20.30;61.20;;;;;;5074637;28;20028;-69
2022/05/24 03:40:01;;;;;;;5.10;2.30;;;20.30;61.10;;;;;;5074540;28;20059;-70
2022/05/24 03:42:27;;;;;;;5.93;2.70;;;20.30;61.20;;;;;;5074400;28;20060;-69
2022/05/24 03:44:53;;;;;;;3.08;2.38;;;20.30;61.40;;;;;;5074397;28;20405;-70
2022/05/24 03:47:18;;;;;;;2.95;2.28;;;20.40;61.60;;;;;;5072872;28;20038;-70
2022/05/24 03:49:44;;;;;;;4.15;2.15;;;20.40;61.60;;;;;;5072867;28;20024;-72
2022/05/24 03:52:10;;;;;;;6.75;2.78;;;20.40;61.50;;;;;;5073945;28;20440;-70
2022/05/24 03:54:35;;;;;;;5.82;2.70;;;20.50;61.60;;;;;;5074265;28;20031;-69
2022/05/24 03:59:45;;;;;;;4.85;2.40;;;20.50;61.50;;;;;;5074124;28;20058;-70
2022/05/24 04:02:12;;;;;;;5.18;2.70;;;20.60;61.40;;;;;;5072667;28;20025;-70
2022/05/24 04:04:38;;;;;;;6.13;2.90;;;20.60;61.30;;;;;;5073649;28;20027;-69
2022/05/24 04:07:03;;;;;;;5.18;2.58;;;20.60;61.20;;;;;;5073510;28;20053;-69
2022/05/24 04:09:33;;;;;;;4.45;2.50;;;20.70;61.00;;;;;;5073543;28;20036;-70
2022/05/24 04:11:59;;;;;;;5.15;2.60;;;20.70;60.90;;;;;;5073841;28;20024;-70
2022/05/24 04:14:24;;;;;;;4.90;2.65;;;20.80;60.70;;;;;;5073761;28;20471;-69
2022/05/24 04:16:52;;;;;;;4.45;2.53;;;20.90;60.70;;;;;;5072478;28;20071;-69
2022/05/24 04:19:17;;;;;;;4.93;2.60;;;20.90;60.40;;;;;;5072392;28;20123;-70
2022/05/24 04:21:43;;;;;;;4.15;2.70;;;21.00;60.30;;;;;;5073750;28;20048;-70
2022/05/24 04:24:09;;;;;;;2.95;2.10;;;21.00;59.90;;;;;;5073662;28;20117;-69
2022/05/24 04:26:35;;;;;;;5.57;2.47;;;21.10;59.70;;;;;;5073932;28;20025;-70
2022/05/24 04:29:00;;;;;;;7.28;2.53;;;21.20;59.70;;;;;;5079193;28;20094;-69
2022/05/24 04:31:26;;;;;;;5.47;2.58;;;21.30;59.50;;;;;;5093456;28;20077;-69
2022/05/24 04:33:52;;;;;;;3.83;2.40;;;21.30;59.30;;;;;;5093469;28;20466;-70
2022/05/24 04:36:18;;;;;;;6.75;2.55;;;21.40;59.20;;;;;;5092316;28;20028;-70
2022/05/24 04:38:44;;;;;;;9.23;2.63;;;21.50;59.20;;;;;;5092197;28;20373;-70
2022/05/24 04:43:54;;;;;;;4.72;2.05;;;21.60;58.80;;;;;;5093435;28;20434;-71
2022/05/24 04:46:19;;;;;;;4.85;3.00;;;21.70;58.60;;;;;;5092267;28;20060;-70
2022/05/24 04:48:45;;;;;;;4.20;2.20;;;21.70;58.50;;;;;;5092069;28;20061;-70
2022/05/24 04:51:11;;;;;;;4.90;2.35;;;21.80;58.40;;;;;;5093467;28;20352;-70
2022/05/24 04:53:37;;;;;;;3.50;2.05;;;21.80;58.30;;;;;;5092069;28;20031;-69
2022/05/24 04:56:03;;;;;;;3.65;2.65;;;21.90;58.20;;;;;;5093104;28;20028;-69
2022/05/24 04:58:28;;;;;;;5.85;2.50;;;21.90;58.10;;;;;;5092149;28;20044;-69
2022/05/24 05:00:54;;;;;;;2.60;2.13;;;22.00;58.00;;;;;;5092299;28;20464;-70
2022/05/24 05:03:21;;;;;;;7.97;2.30;;;22.00;57.80;;;;;;5091948;28;20507;-69
2022/05/24 05:05:49;;;;;;;3.72;2.38;;;22.10;57.70;;;;;;5093020;28;20072;-69
2022/05/24 05:08:16;;;;;;;6.57;2.78;;;22.10;57.60;;;;;;5092601;28;20044;-69
2022/05/24 05:10:42;;;;;;;3.83;2.20;;;22.10;57.50;;;;;;5092067;28;20189;-69
2022/05/24 05:13:08;;;;;;;7.88;2.55;;;22.20;57.40;;;;;;5091858;28;20107;-69
2022/05/24 05:15:37;;;;;;;7.50;2.33;;;22.20;57.30;;;;;;5092489;28;20361;-71
2022/05/24 05:18:13;;;;;;;3.38;2.15;;;22.20;57.20;;;;;;5091446;28;20027;-67
2022/05/24 05:20:41;;;;;;;4.35;2.40;;;22.20;57.10;;;;;;5091877;28;20435;-70
2022/05/24 05:23:09;;;;;;;5.38;2.50;;;22.20;57.10;;;;;;5071314;28;20024;-69
2022/05/24 05:25:35;;;;;;;3.33;1.88;;;22.30;57.30;;;;;;5070954;28;20377;-71
2022/05/24 05:28:00;;;;;;;6.70;2.35;;;22.30;57.30;;;;;;5072019;28;20457;-71
2022/05/24 05:33:11;;;;;;;7.93;3.22;;;22.30;57.60;;;;;;5092463;28;20043;-68
2022/05/24 05:35:37;;;;;;;5.57;2.95;;;22.30;58.30;;;;;;5091501;28;20084;-68
2022/05/24 05:38:03;;;;;;;5.95;2.97;;;22.30;57.90;;;;;;5092493;28;20104;-68
2022/05/24 05:40:28;;;;;;;9.05;3.58;;;22.30;57.90;;;;;;5092785;28;20035;-68
2022/05/24 05:42:54;;;;;;;4.13;3.00;;;22.30;58.10;;;;;;5092625;28;20471;-68
2022/05/24 05:45:20;;;;;;;4.53;2.65;;;22.30;58.10;;;;;;5091223;28;20024;-68
2022/05/24 05:47:46;;;;;;;4.32;2.97;;;22.30;58.10;;;;;;5082038;28;20043;-69
2022/05/24 05:50:11;;;;;;;8.18;3.53;;;22.40;58.40;;;;;;5072463;28;20035;-68
2022/05/24 05:52:37;;;;;;;10.95;4.13;;;22.40;58.20;;;;;;5075231;28;20028;-69
2022/05/24 05:55:03;;;;;;;7.20;4.07;;;22.50;58.20;;;;;;5093202;28;20111;-68
2022/05/24 05:57:29;;;;;;;9.90;4.47;;;22.50;58.10;;;;;;5095821;28;20032;-68
2022/05/24 05:59:55;;;;;;;8.13;4.28;;;22.60;58.00;;;;;;5095592;28;20028;-69
2022/05/24 06:02:20;;;;;;;10.88;5.28;;;22.60;58.10;;;;;;5096340;28;20016;-69
2022/05/24 06:04:46;;;;;;;6.88;4.72;;;22.60;58.00;;;;;;5094886;28;20020;-69
2022/05/24 06:07:12;;;;;;;6.55;3.85;;;22.60;58.00;;;;;;5096172;28;20105;-70
2022/05/24 06:09:38;;;;;;;11.20;4.60;;;22.60;58.10;;;;;;5096297;28;20122;-69
2022/05/24 06:12:04;;;;;;;5.47;3.83;;;22.60;58.10;;;;;;5094668;28;20035;-68
2022/05/24 06:14:30;;;;;;;7.35;4.20;;;22.60;58.20;;;;;;5094700;28;20028;-69
2022/05/24 06:16:56;;;;;;;8.45;3.70;;;22.60;58.10;;;;;;5090829;28;20055;-68
2022/05/24 06:19:21;;;;;;;11.43;3.83;;;22.70;58.20;;;;;;5074856;28;20123;-69
2022/05/24 06:21:47;;;;;;;6.07;3.40;;;22.70;58.10;;;;;;5076064;28;20028;-69
2022/05/24 06:24:14;;;;;;;7.65;3.78;;;22.80;58.00;;;;;;5083949;28;20481;-69
2022/05/24 06:26:40;;;;;;;4.75;3.25;;;22.80;58.10;;;;;;5074700;28;20025;-69
2022/05/24 06:29:06;;;;;;;7.47;4.10;;;22.90;57.90;;;;;;5075460;28;20032;-69
2022/05/24 06:31:32;;;;;;;8.77;4.00;;;23.00;57.70;;;;;;5075981;28;20032;-68
2022/05/24 06:33:58;;;;;;;8.48;4.25;;;23.10;57.60;;;;;;5074418;28;20170;-68
2022/05/24 06:36:24;;;;;;;7.50;5.05;;;23.10;57.60;;;;;;5074323;28;20115;-69
2022/05/24 06:38:50;;;;;;;9.13;3.88;;;23.20;57.20;;;;;;5086887;28;20111;-69
2022/05/24 06:41:16;;;;;;;8.15;3.90;;;23.30;57.40;;;;;;5095450;28;20122;-70
2022/05/24 06:43:42;;;;;;;5.75;3.95;;;23.40;57.20;;;;;;5094503;28;20016;-69
2022/05/24 06:46:08;;;;;;;4.57;3.95;;;23.50;57.20;;;;;;5094152;28;20032;-69
2022/05/24 06:48:37;;;;;;;6.18;3.88;;;23.60;56.80;;;;;;5095586;28;20028;-68
2022/05/24 06:51:15;;;;;;;6.68;4.10;;;23.70;56.40;;;;;;5094588;28;20028;-68
2022/05/24 06:53:44;;;;;;;6.43;3.50;;;23.80;56.00;;;;;;5094619;28;20024;-69
2022/05/24 06:56:10;;;;;;;5.07;3.22;;;23.90;56.00;;;;;;5094428;28;20424;-69
2022/05/24 06:58:37;;;;;;;4.38;3.22;;;23.90;56.00;;;;;;5095627;28;20031;-69
2022/05/24 07:03:49;;;;;;;7.38;3.90;;;24.00;55.90;;;;;;5095633;28;20112;-68
2022/05/24 07:06:15;;;;;;;4.72;3.58;;;24.10;55.60;;;;;;5094184;28;20031;-68
2022/05/24 07:08:46;;;;;;;6.00;3.40;;;24.10;55.40;;;;;;5077630;28;20059;-69
2022/05/24 07:11:13;;;;;;;8.35;3.97;;;24.10;55.20;;;;;;5092666;28;20103;-68
2022/05/24 07:13:39;;;;;;;7.35;3.38;;;24.10;55.40;;;;;;5093624;28;20422;-69
2022/05/24 07:16:07;;;;;;;5.65;3.53;;;24.20;55.40;;;;;;5093932;28;20081;-68
2022/05/24 07:18:33;;;;;;;7.95;3.70;;;24.20;55.30;;;;;;5093534;28;20118;-69
2022/05/24 07:20:59;;;;;;;5.28;3.45;;;24.30;55.20;;;;;;5094691;28;20051;-68
2022/05/24 07:23:25;;;;;;;6.13;3.92;;;24.40;55.30;;;;;;5093318;28;20044;-69
2022/05/24 07:25:52;;;;;;;5.90;4.10;;;24.40;54.80;;;;;;5094918;28;20074;-69
2022/05/24 07:28:19;;;;;;;9.02;4.05;;;24.50;54.30;;;;;;5093627;28;20065;-69
2022/05/24 07:30:47;;;;;;;7.95;3.72;;;24.50;54.00;;;;;;5093539;28;20527;-69
2022/05/24 07:33:13;;;;;;;6.95;3.95;;;24.60;54.00;;;;;;5094588;28;20027;-69
2022/05/24 07:35:39;;;;;;;8.20;4.05;;;24.60;53.80;;;;;;5093730;28;20078;-69
2022/05/24 07:38:10;;;;;;;4.25;2.55;;;24.60;53.80;;;;;;5094893;28;20032;-71
2022/05/24 07:46:10;;;;;;;9.95;4.28;;;24.60;53.60;;;;;;5074292;28;20120;-69
2022/05/24 07:48:36;;;;;;;5.05;3.97;;;24.60;53.50;;;;;;5086823;28;20035;-69
2022/05/24 07:51:03;;;;;;;7.63;4.72;;;24.60;53.70;;;;;;5080194;28;20091;-69
2022/05/24 07:53:29;;;;;;;11.25;4.85;;;24.60;53.60;;;;;;5093506;28;20432;-70
2022/05/24 07:55:55;;;;;;;7.68;4.63;;;24.60;53.50;;;;;;5093516;28;20375;-69
2022/05/24 07:58:21;;;;;;;11.38;4.80;;;24.60;53.60;;;;;;5094594;28;20054;-70
2022/05/24 08:00:47;;;;;;;8.15;4.80;;;24.60;53.70;;;;;;5080930;28;20508;-70
2022/05/24 08:03:14;;;;;;;8.50;4.55;;;24.60;53.60;;;;;;5087783;28;20028;-71
2022/05/24 08:05:40;;;;;;;7.00;4.57;;;24.60;53.90;;;;;;5092706;28;20024;-70
2022/05/24 08:08:07;;;;;;;6.85;4.18;;;24.70;54.30;;;;;;5092643;28;20052;-69
2022/05/24 08:10:34;;;;;;;6.22;4.63;;;24.80;54.40;;;;;;5093549;28;20414;-69
2022/05/24 08:13:05;;;;;;;6.45;4.35;;;25.00;53.60;;;;;;5093108;28;20055;-69
2022/05/24 08:15:31;;;;;;;5.60;3.72;;;25.00;53.30;;;;;;5094423;28;20024;-69
2022/05/24 08:17:57;;;;;;;6.63;4.18;;;25.10;52.90;;;;;;5090564;28;20123;-69
2022/05/24 08:20:23;;;;;;;8.30;4.20;;;25.20;52.80;;;;;;5076944;28;20383;-69
2022/05/24 08:22:49;;;;;;;7.88;4.38;;;25.20;52.50;;;;;;5094143;28;20177;-70
2022/05/24 08:25:15;;;;;;;7.03;3.38;;;25.30;52.20;;;;;;5093340;28;20182;-69
2022/05/24 08:27:42;;;;;;;8.75;3.70;;;25.50;52.60;;;;;;5093822;28;20036;-69
2022/05/24 08:30:10;;;;;;;7.90;4.25;;;25.60;52.60;;;;;;5092651;28;20103;-69
2022/05/24 08:32:36;;;;;;;8.95;4.15;;;25.80;52.40;;;;;;5092392;28;20020;-69
2022/05/24 08:35:04;;;;;;;6.57;3.97;;;26.00;51.90;;;;;;5109595;28;20031;-69
2022/05/24 08:37:30;;;;;;;7.85;4.88;;;26.20;52.00;;;;;;5092565;28;20460;-69
2022/05/24 08:39:58;;;;;;;5.90;3.92;;;26.40;51.40;;;;;;5091897;28;20054;-68
2022/05/24 08:42:36;;;;;;;11.25;5.68;;;26.60;51.40;;;;;;5093204;28;20109;-70
2022/05/24 08:51:00;;;;;;;9.43;4.68;;;27.10;48.70;;;;;;5093459;28;20042;-69
2022/05/24 08:53:42;;;;;;;5.25;4.38;;;27.30;48.40;;;;;;5093655;28;20076;-69
2022/05/24 08:56:14;;;;;;;4.95;4.40;;;27.40;48.00;;;;;;5092456;28;20380;-69
2022/05/24 08:58:50;;;;;;;5.20;4.18;;;27.50;47.50;;;;;;5088599;28;20510;-68
2022/05/24 09:01:27;;;;;;;7.78;4.10;;;27.70;47.40;;;;;;5074795;28;20103;-68
2022/05/24 09:03:53;;;;;;;8.32;5.43;;;27.70;46.90;;;;;;5089228;28;20047;-67
2022/05/24 09:06:43;;;;;;;26.30;5.55;;;27.90;46.60;;;;;;5103127;28;20023;-68
2022/05/24 09:09:21;;;;;;;6.50;5.40;;;28.00;46.80;;;;;;5113923;28;20039;-68
2022/05/24 09:12:01;;;;;;;10.02;6.88;;;28.20;46.70;;;;;;5113952;28;20103;-68
2022/05/24 09:14:36;;;;;;;10.02;7.20;;;28.50;46.90;;;;;;5104305;28;20087;-67
2022/05/24 09:17:34;;;;;;;8.38;6.30;;;28.70;45.70;;;;;;5092031;28;20504;-68
2022/05/24 09:20:00;;;;;;;12.45;6.70;;;28.90;45.00;;;;;;5061509;28;20040;-68
2022/05/24 09:22:37;;;;;;;7.47;6.68;;;29.10;44.40;;;;;;5092157;28;20094;-68
2022/05/24 09:25:05;;;;;;;16.33;6.40;;;29.30;43.80;;;;;;5096034;28;20020;-68
2022/05/24 09:27:51;;;;;;;13.52;7.60;;;29.60;43.20;;;;;;5096111;28;20377;-68
2022/05/24 09:30:30;;;;;;;9.48;6.32;;;29.80;43.30;;;;;;5096362;28;20267;-68
2022/05/24 09:33:25;;;;;;;8.85;6.88;;;30.00;42.10;;;;;;5097806;28;20046;-68
2022/05/24 09:36:09;;;;;;;9.35;6.55;;;30.10;41.70;;;;;;5097022;28;20020;-69
2022/05/24 09:38:39;;;;;;;;;;;30.20;41.60;;;;;;5089569;28;20028;-69
2022/05/24 09:41:18;;;;;;;7.95;6.25;;;30.30;42.80;;;;;;5094987;28;19908;-72
2022/05/24 09:43:59;;;;;;;8.10;6.40;;;30.30;40.30;;;;;;5095631;28;20020;-67
2022/05/24 09:46:26;;;;;;;8.52;6.43;;;30.30;40.40;;;;;;5103952;28;20115;-68
2022/05/24 09:49:00;;;;;;;9.00;6.07;;;30.40;40.30;;;;;;5102713;28;20043;-68
2022/05/24 09:51:46;;;;;;;9.38;6.15;;;30.40;39.50;;;;;;5113557;28;20126;-68
2022/05/24 09:54:15;;;;;;;7.10;5.60;;;30.40;40.10;;;;;;5103145;28;20035;-68
2022/05/24 09:56:42;;;;;;;6.88;5.40;;;30.60;39.70;;;;;;5106282;28;20135;-68
2022/05/24 09:59:23;;;;;;;7.40;4.90;;;30.70;39.00;;;;;;5107209;28;20035;-68
2022/05/24 10:01:50;;;;;;;8.55;5.60;;;30.80;39.30;;;;;;5097830;28;20027;-68
2022/05/24 10:04:22;;;;;;;6.45;5.20;;;30.90;38.60;;;;;;5106223;28;20089;-67
2022/05/24 10:07:00;;;;;;;8.53;5.50;;;31.00;38.10;;;;;;5093358;28;20050;-68
2022/05/24 10:09:54;;;;;;;8.80;5.60;;;31.00;37.90;;;;;;5095391;28;20032;-68
2022/05/24 10:12:20;;;;;;;;;;;30.90;38.40;;;;;;5095805;28;20400;-68
2022/05/24 10:15:01;;;;;;;12.30;5.38;;;30.90;39.50;;;;;;5096684;28;19946;-68
2022/05/24 10:17:47;;;;;;;4.53;3.20;;;30.80;37.70;;;;;;5095476;28;20052;-68
2022/05/24 10:20:23;;;;;;;3.30;2.20;;;30.60;37.90;;;;;;5095339;28;20032;-68
2022/05/24 10:23:01;;;;;;;9.52;2.45;;;30.40;37.30;;;;;;5095162;28;20016;-67
2022/05/24 10:25:48;;;;;;;4.15;2.13;;;30.20;37.70;;;;;;5095048;28;20107;-70
2022/05/24 10:28:33;;;;;;;11.68;2.97;;;29.90;38.00;;;;;;5094644;28;20081;-68
2022/05/24 10:31:22;;;;;;;5.05;2.45;;;29.60;38.50;;;;;;5096244;28;20078;-78
2022/05/24 10:40:38;;;;;;;5.55;1.83;;;28.90;39.60;;;;;;5081638;28;20077;-69
2022/05/24 10:43:23;;;;;;;5.13;2.20;;;28.70;40.00;;;;;;5105703;28;20031;-69
2022/05/24 10:45:58;;;;;;;2.63;1.70;;;28.60;40.30;;;;;;5096091;28;20050;-69
2022/05/24 10:48:45;;;;;;;5.45;2.03;;;28.50;40.40;;;;;;5094811;28;20391;-69
2022/05/24 10:51:48;;;;;;;3.20;1.90;;;28.40;40.70;;;;;;5074823;28;20027;-68
2022/05/24 10:54:23;;;;;;;3.50;1.80;;;28.30;41.20;;;;;;5089501;28;20426;-69
2022/05/24 10:56:54;;;;;;;4.95;2.20;;;28.20;41.40;;;;;;5092522;28;20039;-68
2022/05/24 10:59:47;;;;;;;5.80;2.03;;;28.10;41.90;;;;;;5095675;28;20032;-67
2022/05/24 11:02:17;;;;;;;4.70;2.40;;;28.00;42.10;;;;;;5095592;28;20032;-68
2022/05/24 11:05:07;;;;;;;5.85;2.42;;;27.80;42.40;;;;;;5090845;28;20028;-69
2022/05/24 11:07:36;;;;;;;4.47;2.53;;;27.70;42.70;;;;;;5086845;28;20059;-68
2022/05/24 11:10:10;;;;;;;4.30;2.33;;;27.50;43.20;;;;;;5093746;28;20036;-68
2022/05/24 11:12:38;;;;;;;;;;;27.40;43.50;;;;;;5095968;28;20082;-69
2022/05/24 11:15:24;;;;;;;8.32;2.67;;;27.40;43.30;;;;;;5094963;28;19915;-68
2022/05/24 11:17:51;;;;;;;2.80;1.90;;;27.30;43.90;;;;;;5091005;28;20635;-69
2022/05/24 11:20:23;;;;;;;4.05;2.00;;;27.30;44.30;;;;;;5090717;28;20024;-67
2022/05/24 11:23:03;;;;;;;13.40;2.10;;;27.30;44.30;;;;;;5086809;28;20024;-68
2022/05/24 11:25:39;;;;;;;3.70;2.10;;;27.30;44.40;;;;;;5093747;28;20031;-69
2022/05/24 11:28:05;;;;;;;2.55;1.80;;;27.20;44.40;;;;;;5092591;28;20124;-68
2022/05/24 11:30:30;;;;;;;5.28;2.05;;;27.20;44.60;;;;;;5092081;28;20115;-68
2022/05/24 11:33:05;;;;;;;9.55;2.22;;;27.20;44.70;;;;;;5096959;28;20069;-68
2022/05/24 11:35:35;;;;;;;3.10;1.88;;;27.10;44.60;;;;;;5091016;28;20035;-65
2022/05/24 11:38:20;;;;;;;5.47;1.88;;;27.10;44.70;;;;;;5093820;28;20447;-68
2022/05/24 11:40:54;;;;;;;5.00;2.17;;;27.00;44.50;;;;;;5092013;28;20032;-68
2022/05/24 11:43:35;;;;;;;4.20;2.15;;;26.90;44.60;;;;;;5093712;28;20344;-68
2022/05/24 11:46:26;;;;;;;7.55;3.15;;;26.90;44.70;;;;;;5094800;28;20145;-68
2022/05/24 11:48:54;;;;;;;5.20;1.90;;;26.80;44.80;;;;;;5093570;28;20027;-68
2022/05/24 11:51:33;;;;;;;4.28;2.10;;;26.80;45.00;;;;;;5093447;28;20067;-68
2022/05/24 11:54:00;;;;;;;5.50;1.83;;;26.60;44.90;;;;;;5094322;28;20469;-70
2022/05/24 11:56:28;;;;;;;6.90;1.90;;;26.60;45.10;;;;;;5093626;28;20020;-68
2022/05/24 11:59:18;;;;;;;3.13;1.50;;;26.50;45.30;;;;;;5094499;28;20028;-68
2022/05/24 12:01:46;;;;;;;10.20;2.20;;;26.50;45.40;;;;;;5094001;28;20071;-68
2022/05/24 12:10:24;;;;;;;4.70;2.20;;;26.30;45.90;;;;;;5094213;28;20047;-68
2022/05/24 12:12:55;;;;;;;5.53;2.50;;;26.20;46.60;;;;;;5094100;28;20107;-68
2022/05/24 12:15:24;;;;;;;9.48;2.17;;;26.10;47.20;;;;;;5094334;28;20345;-68
2022/05/24 12:18:18;;;;;;;7.97;2.58;;;26.00;48.20;;;;;;5092854;28;20024;-68
2022/05/24 12:20:43;;;;;;;13.73;3.17;;;25.80;49.10;;;;;;5093927;28;20103;-68
2022/05/24 12:23:19;;;;;;;9.50;2.92;;;25.80;50.60;;;;;;5093818;28;20148;-68
2022/05/24 12:26:03;;;;;;;11.07;2.95;;;25.60;51.10;;;;;;5093829;28;20016;-69
2022/05/24 12:28:41;;;;;;;;;;;25.40;52.60;;;;;;5094360;28;20032;-68
2022/05/24 12:31:13;;;;;;;5.18;2.58;;;25.40;50.30;;;;;;5094135;28;19912;-68
2022/05/24 12:34:01;;;;;;;9.02;3.42;;;25.20;52.80;;;;;;5092484;28;20060;-68
2022/05/24 12:36:35;;;;;;;6.75;2.67;;;25.10;53.20;;;;;;5093872;28;20051;-68
2022/05/24 12:39:13;;;;;;;7.03;3.20;;;25.00;54.20;;;;;;5075379;28;20388;-68
2022/05/24 12:41:42;;;;;;;4.55;2.55;;;25.00;54.50;;;;;;5072233;28;20032;-68
2022/05/24 12:44:21;;;;;;;4.00;2.47;;;24.90;55.10;;;;;;5072292;28;20029;-68
2022/05/24 12:47:07;;;;;;;4.53;2.97;;;24.90;55.20;;;;;;5072025;28;20491;-68
2022/05/24 12:49:51;;;;;;;6.90;2.90;;;24.90;55.20;;;;;;5071982;28;20380;-68
2022/05/24 12:52:27;;;;;;;6.03;2.88;;;24.90;55.30;;;;;;5073092;28;20159;-68
2022/05/24 12:54:59;;;;;;;7.90;3.10;;;24.90;55.20;;;;;;5073425;28;20060;-69
2022/05/24 12:57:40;;;;;;;7.38;3.40;;;24.90;55.50;;;;;;5071843;28;20028;-68
2022/05/24 13:00:23;;;;;;;6.25;3.45;;;24.80;55.20;;;;;;5073089;28;20518;-68
2022/05/24 13:02:51;;;;;;;7.85;3.30;;;24.80;54.90;;;;;;5073417;28;20021;-68
2022/05/24 13:05:24;;;;;;;8.25;3.50;;;24.80;55.20;;;;;;5073311;28;20025;-68
2022/05/24 13:07:50;;;;;;;7.07;2.83;;;24.70;55.10;;;;;;5071544;28;20179;-68
2022/05/24 13:10:22;;;;;;;7.13;3.05;;;24.70;55.00;;;;;;5073220;28;20471;-68
2022/05/24 13:12:55;;;;;;;4.85;2.72;;;24.70;55.40;;;;;;5071545;28;20043;-69
2022/05/24 13:15:29;;;;;;;6.72;2.78;;;24.70;55.30;;;;;;5071645;28;20028;-68
2022/05/24 13:18:02;;;;;;;7.07;2.75;;;24.80;54.90;;;;;;5073096;28;20074;-68
2022/05/24 13:20:36;;;;;;;6.00;2.63;;;24.80;55.10;;;;;;5073140;28;20108;-68
2022/05/24 13:23:18;;;;;;;5.97;2.63;;;24.80;54.80;;;;;;5071945;28;20036;-68
2022/05/24 13:25:58;;;;;;;9.10;2.70;;;24.90;54.70;;;;;;5073340;28;20115;-68
2022/05/24 13:28:48;;;;;;;8.27;1.92;;;24.90;55.50;;;;;;5071679;28;20028;-69
2022/05/24 13:34:29;;;;;;;1.60;0.88;;;24.40;52.30;;;;;;5072753;28;20094;-69
2022/05/24 13:36:57;;;;;;;2.85;1.52;;;24.20;52.30;;;;;;5071820;28;20028;-69
2022/05/24 13:39:53;;;;;;;5.25;0.90;;;24.10;53.20;;;;;;5071438;28;20028;-69
2022/05/24 13:42:30;;;;;;;3.25;0.90;;;23.90;52.50;;;;;;5071424;28;20055;-69
2022/05/24 13:45:01;;;;;;;2.22;1.10;;;23.70;53.30;;;;;;5071733;28;20025;-69
2022/05/24 13:47:38;;;;;;;3.85;1.35;;;23.60;54.10;;;;;;5072937;28;20125;-69
2022/05/24 13:50:41;;;;;;;6.35;1.27;;;23.50;54.00;;;;;;5071676;28;20040;-69
2022/05/24 13:53:25;;;;;;;6.53;1.20;;;23.40;53.50;;;;;;5071730;28;20033;-68
2022/05/24 13:56:03;;;;;;;3.80;1.20;;;23.40;54.70;;;;;;5071652;28;20025;-69
2022/05/24 13:58:38;;;;;;;2.28;1.00;;;23.30;53.90;;;;;;5071661;28;20036;-69
2022/05/24 14:01:23;;;;;;;2.45;0.88;;;23.40;54.80;;;;;;5071456;28;20024;-68